createdAt,value
2019-04-05T00:01:34.422Z,39.73
2019-04-05T00:04:03.464Z,41.07
2019-04-05T00:06:32.494Z,42.13
2019-04-05T00:09:01.204Z,42.13
2019-04-05T00:11:30.228Z,43.37
2019-04-05T00:13:59.045Z,41.57
2019-04-05T00:16:27.887Z,41.67
2019-04-05T00:18:56.820Z,45.30
2019-04-05T00:21:25.801Z,43.83
2019-04-05T00:23:54.515Z,45.50
2019-04-05T00:26:23.296Z,45.40
2019-04-05T00:28:52.403Z,45.00
2019-04-05T00:31:21.363Z,44.93
2019-04-05T00:33:51.713Z,48.23
2019-04-05T00:36:20.432Z,46.40
2019-04-05T00:38:49.139Z,46.37
2019-04-05T00:41:17.923Z,45.53
2019-04-05T00:43:47.077Z,47.67
2019-04-05T00:46:15.782Z,45.20
2019-04-05T00:48:44.859Z,47.63
2019-04-05T00:51:13.577Z,46.00
2019-04-05T00:53:42.443Z,48.80
2019-04-05T00:56:11.517Z,46.87
2019-04-05T00:58:40.682Z,45.23
2019-04-05T01:01:09.883Z,46.20
2019-04-05T01:06:40.453Z,48.07
2019-04-05T01:09:09.468Z,47.00
2019-04-05T01:11:38.426Z,48.23
2019-04-05T01:14:07.212Z,49.97
2019-04-05T01:16:36.325Z,47.73
2019-04-05T01:19:05.306Z,49.10
2019-04-05T01:21:39.417Z,48.87
2019-04-05T01:24:09.634Z,48.83
2019-04-05T01:26:41.504Z,47.80
2019-04-05T01:29:10.701Z,47.97
2019-04-05T01:31:39.539Z,52.50
2019-04-05T01:34:08.563Z,49.67
2019-04-05T01:36:37.272Z,48.93
2019-04-05T01:39:06.946Z,50.13
2019-04-05T01:41:36.740Z,51.13
2019-04-05T01:44:05.610Z,51.87
2019-04-05T01:46:34.965Z,51.10
2019-04-05T01:49:04.013Z,49.87
2019-04-05T01:51:33.314Z,51.40
2019-04-05T01:54:02.685Z,50.83
2019-04-05T01:56:31.812Z,52.33
2019-04-05T01:59:00.855Z,51.83
2019-04-05T02:01:30.248Z,52.57
2019-04-05T02:03:59.383Z,54.23
2019-04-05T02:06:28.670Z,53.03
2019-04-05T02:08:57.539Z,53.10
2019-04-05T02:11:35.287Z,53.97
2019-04-05T02:14:04.251Z,53.33
2019-04-05T02:16:33.265Z,53.73
2019-04-05T02:19:02.371Z,55.53
2019-04-05T02:21:31.401Z,55.73
2019-04-05T02:24:00.514Z,53.33
2019-04-05T02:26:29.552Z,55.57
2019-04-05T02:28:58.658Z,54.83
2019-04-05T02:31:27.695Z,57.20
2019-04-05T02:33:56.482Z,55.53
2019-04-05T02:36:25.363Z,55.70
2019-04-05T02:38:54.398Z,52.43
2019-04-05T02:41:24.944Z,55.47
2019-04-05T02:43:56.555Z,53.33
2019-04-05T02:46:26.633Z,53.10
2019-04-05T02:48:57.202Z,52.13
2019-04-05T02:51:28.167Z,53.90
2019-04-05T02:53:58.677Z,53.97
2019-04-05T02:59:43.728Z,51.90
2019-04-05T03:02:12.684Z,52.53
2019-04-05T03:04:42.129Z,52.10
2019-04-05T03:07:11.253Z,53.30
2019-04-05T03:09:40.606Z,55.00
2019-04-05T03:12:09.718Z,52.63
2019-04-05T03:14:40.255Z,53.57
2019-04-05T03:17:11.399Z,51.67
2019-04-05T03:19:41.590Z,50.50
2019-04-05T03:22:13.628Z,53.50
2019-04-05T03:24:46.408Z,51.03
2019-04-05T03:27:23.440Z,52.27
2019-04-05T03:29:53.440Z,51.37
2019-04-05T03:32:22.866Z,54.70
2019-04-05T03:34:52.331Z,52.63
2019-04-05T03:37:22.208Z,52.33
2019-04-05T03:39:51.586Z,55.37
2019-04-05T03:42:21.034Z,52.50
2019-04-05T03:44:50.238Z,52.67
2019-04-05T03:47:19.583Z,54.00
2019-04-05T03:49:48.752Z,53.60
2019-04-05T03:52:17.528Z,54.30
2019-04-05T03:54:47.576Z,54.70
2019-04-05T03:57:17.073Z,54.10
2019-04-05T03:59:45.860Z,54.40
2019-04-05T04:02:14.957Z,53.53
2019-04-05T04:04:43.741Z,54.20
2019-04-05T04:07:13.236Z,54.10
2019-04-05T04:09:41.970Z,54.80
2019-04-05T04:12:11.267Z,53.57
2019-04-05T04:14:40.566Z,56.17
2019-04-05T04:17:12.569Z,53.43
2019-04-05T04:19:40.908Z,55.57
2019-04-05T04:22:28.057Z,55.37
2019-04-05T04:24:57.141Z,56.23
2019-04-05T04:27:26.846Z,55.87
2019-04-05T04:29:56.042Z,57.67
2019-04-05T04:32:24.917Z,56.23
2019-04-05T04:34:55.276Z,54.30
2019-04-05T04:37:24.541Z,53.70
2019-04-05T04:39:54.959Z,52.53
2019-04-05T04:42:24.911Z,52.37
2019-04-05T04:44:54.521Z,51.83
2019-04-05T04:47:26.919Z,51.50
2019-04-05T04:49:57.945Z,51.87
2019-04-05T04:52:31.215Z,51.47
2019-04-05T04:54:59.660Z,51.27
2019-04-05T04:57:29.019Z,49.80
2019-04-05T04:59:58.319Z,51.53
2019-04-05T05:02:27.336Z,51.00
2019-04-05T05:04:56.554Z,52.23
2019-04-05T05:07:25.783Z,52.13
2019-04-05T05:09:54.874Z,49.90
2019-04-05T05:12:25.219Z,51.30
2019-04-05T05:14:54.806Z,52.13
2019-04-05T05:17:23.749Z,53.97
2019-04-05T05:19:53.044Z,54.00
2019-04-05T05:22:21.907Z,52.93
2019-04-05T05:24:50.839Z,53.17
2019-04-05T05:27:20.085Z,53.90
2019-04-05T05:29:49.252Z,51.47
2019-04-05T05:32:18.602Z,54.10
2019-04-05T05:34:47.361Z,49.90
2019-04-05T05:37:16.375Z,52.53
2019-04-05T05:39:45.609Z,52.90
2019-04-05T05:42:14.755Z,54.57
2019-04-05T05:44:43.619Z,53.60
2019-04-05T05:47:12.681Z,53.07
2019-04-05T05:49:41.704Z,56.60
2019-04-05T05:52:11.298Z,54.40
2019-04-05T05:54:40.282Z,56.40
2019-04-05T05:57:09.321Z,55.87
2019-04-05T05:59:38.040Z,56.33
2019-04-05T06:02:07.328Z,55.60
2019-04-05T06:04:36.715Z,56.77
2019-04-05T06:07:05.593Z,56.70
2019-04-05T06:09:34.534Z,55.40
2019-04-05T06:12:03.254Z,54.90
2019-04-05T06:14:32.060Z,56.50
2019-04-05T06:17:01.004Z,54.80
2019-04-05T06:19:30.178Z,56.53
2019-04-05T06:21:58.886Z,56.83
2019-04-05T06:24:27.845Z,56.83
2019-04-05T06:26:56.898Z,54.87
2019-04-05T06:29:25.611Z,55.90
2019-04-05T06:31:54.315Z,56.90
2019-04-05T06:34:23.225Z,56.63
2019-04-05T06:36:51.952Z,56.93
2019-04-05T06:39:21.137Z,54.00
2019-04-05T06:41:49.870Z,57.40
2019-04-05T06:44:18.679Z,55.87
2019-04-05T06:46:47.388Z,57.13
2019-04-05T06:49:16.334Z,54.93
2019-04-05T06:51:45.702Z,55.27
2019-04-05T06:54:14.399Z,51.50
2019-04-05T06:56:43.355Z,54.07
2019-04-05T06:59:12.066Z,54.63
2019-04-05T07:01:41.040Z,56.17
2019-04-05T07:04:10.009Z,53.43
2019-04-05T07:06:38.953Z,54.87
2019-04-05T07:09:08.088Z,54.13
2019-04-05T07:11:36.897Z,55.23
2019-04-05T07:14:05.981Z,57.00
2019-04-05T07:16:34.993Z,57.90
2019-04-05T07:19:04.259Z,55.23
2019-04-05T07:21:33.209Z,54.33
2019-04-05T07:24:02.184Z,51.70
2019-04-05T07:26:31.144Z,55.53
2019-04-05T07:29:00.103Z,55.60
2019-04-05T07:31:29.063Z,53.33
2019-04-05T07:33:58.190Z,54.07
2019-04-05T07:36:27.232Z,53.13
2019-04-05T07:38:55.962Z,52.87
2019-04-05T07:41:24.928Z,54.63
2019-04-05T07:43:53.914Z,54.77
2019-04-05T07:46:22.910Z,54.20
2019-04-05T07:48:51.863Z,52.83
2019-04-05T07:51:22.771Z,57.40
2019-04-05T07:53:51.336Z,53.93
2019-04-05T07:56:20.371Z,56.93
2019-04-05T07:58:49.230Z,55.47
2019-04-05T08:01:18.229Z,55.83
2019-04-05T08:03:47.207Z,56.80
2019-04-05T08:06:16.843Z,53.37
2019-04-05T08:09:07.765Z,55.67
2019-04-05T08:11:38.133Z,51.13
2019-04-05T08:14:07.376Z,52.77
2019-04-05T08:16:36.417Z,51.80
2019-04-05T08:19:05.604Z,54.77
2019-04-05T08:21:34.559Z,55.57
2019-04-05T08:24:03.616Z,52.17
2019-04-05T08:26:32.743Z,52.87
2019-04-05T08:29:01.643Z,55.90
2019-04-05T08:31:30.581Z,54.03
2019-04-05T08:34:00.812Z,51.10
2019-04-05T08:36:32.597Z,51.67
2019-04-05T08:39:00.120Z,55.23
2019-04-05T08:41:29.173Z,52.23
2019-04-05T08:43:58.043Z,52.70
2019-04-05T08:46:26.844Z,53.33
2019-04-05T08:48:55.689Z,53.27
2019-04-05T08:51:24.475Z,54.33
2019-04-05T08:53:53.920Z,54.90
2019-04-05T08:56:22.868Z,52.97
2019-04-05T08:58:51.597Z,51.27
2019-04-05T09:01:20.607Z,54.23
2019-04-05T09:03:49.726Z,52.83
2019-04-05T09:06:18.631Z,55.70
2019-04-05T09:08:47.658Z,50.57
2019-04-05T09:11:16.645Z,52.10
2019-04-05T09:13:45.918Z,52.33
2019-04-05T09:16:14.758Z,52.60
2019-04-05T09:18:43.459Z,53.33
2019-04-05T09:21:12.418Z,54.87
2019-04-05T09:23:41.395Z,53.53
2019-04-05T09:26:10.488Z,53.67
2019-04-05T09:28:40.086Z,54.50
2019-04-05T09:31:09.115Z,54.10
2019-04-05T09:33:38.252Z,54.17
2019-04-05T09:36:07.457Z,52.80
2019-04-05T09:38:36.420Z,50.67
2019-04-05T09:41:05.632Z,52.67
2019-04-05T09:43:35.128Z,50.13
2019-04-05T09:46:04.217Z,52.97
2019-04-05T09:48:33.244Z,54.13
2019-04-05T09:51:02.225Z,52.30
2019-04-05T09:53:31.319Z,52.97
2019-04-05T09:56:00.728Z,54.50
2019-04-05T09:58:29.676Z,54.07
2019-04-05T10:00:58.743Z,50.63
2019-04-05T10:03:27.552Z,52.37
2019-04-05T10:05:56.748Z,49.63
2019-04-05T10:08:25.553Z,51.30
2019-04-05T10:10:54.985Z,50.40
2019-04-05T10:13:23.692Z,49.83
2019-04-05T10:15:52.727Z,50.20
2019-04-05T10:18:21.688Z,48.57
2019-04-05T10:20:50.655Z,48.03
2019-04-05T10:23:19.802Z,49.07
2019-04-05T10:25:48.726Z,48.67
2019-04-05T10:28:17.733Z,52.07
2019-04-05T10:30:46.985Z,49.53
2019-04-05T10:33:15.795Z,50.23
2019-04-05T10:35:44.862Z,49.80
2019-04-05T10:38:13.830Z,47.17
2019-04-05T10:40:42.847Z,47.20
2019-04-05T10:43:11.818Z,45.30
2019-04-05T10:45:40.976Z,46.60
2019-04-05T10:48:10.090Z,49.57
2019-04-05T10:50:39.023Z,50.93
2019-04-05T10:53:08.252Z,46.37
2019-04-05T10:55:37.069Z,49.43
2019-04-05T10:58:06.356Z,47.77
2019-04-05T11:00:35.407Z,49.20
2019-04-05T11:03:04.197Z,50.20
2019-04-05T11:05:33.292Z,49.40
2019-04-05T11:08:02.254Z,49.53
2019-04-05T11:10:30.961Z,48.97
2019-04-05T11:12:59.662Z,49.20
2019-04-05T11:15:28.819Z,44.97
2019-04-05T11:17:59.118Z,47.27
2019-04-05T11:20:27.928Z,46.63
2019-04-05T11:22:56.635Z,47.97
2019-04-05T11:25:25.603Z,45.87
2019-04-05T11:27:54.576Z,47.20
2019-04-05T11:30:44.516Z,49.27
2019-04-05T11:33:13.744Z,48.97
2019-04-05T11:35:42.727Z,46.80
2019-04-05T11:38:12.695Z,48.13
2019-04-05T11:40:41.970Z,48.07
2019-04-05T11:43:10.845Z,47.63
2019-04-05T11:45:39.931Z,47.30
2019-04-05T11:48:08.901Z,47.43
2019-04-05T11:50:37.936Z,46.97
2019-04-05T11:53:06.800Z,44.70
2019-04-05T11:55:36.629Z,46.73
2019-04-05T11:58:05.735Z,46.57
2019-04-05T12:00:46.792Z,45.93
2019-04-05T12:03:15.885Z,48.70
2019-04-05T12:05:45.163Z,47.97
2019-04-05T12:08:13.901Z,46.13
2019-04-05T12:10:43.036Z,46.10
2019-04-05T12:13:12.136Z,47.33
2019-04-05T12:15:42.446Z,48.43
2019-04-05T12:18:11.409Z,47.03
2019-04-05T12:20:49.140Z,48.00
2019-04-05T12:23:10.568Z,48.40
2019-04-05T12:25:39.687Z,48.07
2019-04-05T12:28:10.600Z,49.00
2019-04-05T12:30:40.027Z,49.13
2019-04-05T12:33:14.190Z,48.40
2019-04-05T12:35:39.933Z,46.87
2019-04-05T12:38:08.890Z,45.80
2019-04-05T12:40:40.310Z,47.07
2019-04-05T12:43:12.472Z,47.60
2019-04-05T12:45:39.243Z,48.53
2019-04-05T12:48:09.750Z,49.73
2019-04-05T12:50:38.715Z,48.80
2019-04-05T12:53:07.868Z,49.20
2019-04-05T12:55:37.258Z,46.90
2019-04-05T12:58:06.460Z,47.43
2019-04-05T13:00:35.606Z,46.37
2019-04-05T13:03:04.469Z,48.17
2019-04-05T13:05:33.433Z,47.77
2019-04-05T13:08:02.415Z,46.97
2019-04-05T13:10:31.208Z,46.27
2019-04-05T13:13:01.923Z,46.67
2019-04-05T13:15:31.052Z,47.53
2019-04-05T13:18:01.303Z,47.10
2019-04-05T13:20:30.798Z,48.70
2019-04-05T13:23:04.438Z,45.53
2019-04-05T13:25:30.647Z,46.13
2019-04-05T13:27:59.714Z,47.17
2019-04-05T13:30:28.763Z,46.83
2019-04-05T13:32:57.490Z,45.13
2019-04-05T13:35:26.937Z,46.30
2019-04-05T13:37:55.950Z,43.13
2019-04-05T13:40:25.001Z,46.60
2019-04-05T13:42:53.794Z,46.50
2019-04-05T13:45:22.787Z,47.77
2019-04-05T13:47:52.613Z,47.03
2019-04-05T13:50:21.439Z,46.80
2019-04-05T13:52:50.379Z,47.30
2019-04-05T13:55:19.417Z,45.23
2019-04-05T13:57:48.378Z,46.00
2019-04-05T14:00:18.540Z,44.97
2019-04-05T14:02:50.126Z,45.77
2019-04-05T14:05:18.448Z,45.47
2019-04-05T14:07:48.081Z,48.37
2019-04-05T14:10:17.276Z,48.73
2019-04-05T14:12:46.941Z,48.97
2019-04-05T14:15:15.812Z,47.60
2019-04-05T14:17:45.122Z,48.70
2019-04-05T14:20:18.562Z,48.80
2019-04-05T14:22:46.214Z,47.53
2019-04-05T14:25:15.228Z,49.23
2019-04-05T14:27:43.946Z,48.50
2019-04-05T14:30:13.761Z,47.47
2019-04-05T14:32:42.862Z,47.57
2019-04-05T14:35:11.966Z,47.13
2019-04-05T14:37:40.685Z,43.00
2019-04-05T14:40:10.694Z,44.20
2019-04-05T14:42:39.739Z,42.87
2019-04-05T14:45:08.928Z,41.30
2019-04-05T14:47:37.728Z,43.50
2019-04-05T14:50:07.172Z,42.13
2019-04-05T14:52:36.320Z,42.80
2019-04-05T14:55:05.700Z,42.13
2019-04-05T14:57:36.418Z,41.77
2019-04-05T15:00:06.118Z,41.60
2019-04-05T15:02:34.878Z,41.53
2019-04-05T15:05:04.016Z,43.13
2019-04-05T15:07:33.009Z,44.50
2019-04-05T15:10:03.721Z,46.40
2019-04-05T15:12:32.834Z,46.20
2019-04-05T15:15:01.725Z,47.23
2019-04-05T15:17:30.583Z,50.73
2019-04-05T15:19:59.564Z,50.23
2019-04-05T15:22:28.546Z,49.20
2019-04-05T15:24:57.269Z,50.83
2019-04-05T15:27:26.256Z,52.53
2019-04-05T15:29:55.738Z,51.27
2019-04-05T15:32:26.106Z,51.17
2019-04-05T15:34:56.613Z,50.37
2019-04-05T15:37:25.777Z,50.47
2019-04-05T15:39:54.771Z,47.70
2019-04-05T15:42:23.952Z,50.13
2019-04-05T15:44:59.556Z,52.47
2019-04-05T15:47:28.534Z,49.97
2019-04-05T15:49:57.631Z,51.40
2019-04-05T15:52:30.121Z,51.03
2019-04-05T17:55:52.321Z,49.13
2019-04-05T17:58:22.698Z,45.10
2019-04-05T18:00:51.681Z,45.30
2019-04-05T18:03:20.797Z,44.60
2019-04-05T18:05:49.883Z,42.93
2019-04-05T18:08:19.083Z,43.97
2019-04-05T18:10:48.043Z,44.40
2019-04-05T18:13:17.084Z,42.37
2019-04-05T18:15:52.267Z,43.03
2019-04-05T18:18:16.942Z,43.03
2019-04-05T18:20:55.808Z,42.03
2019-04-05T18:23:24.866Z,40.77
2019-04-05T18:25:46.909Z,43.87
2019-04-05T18:28:15.902Z,41.90
2019-04-05T18:30:44.912Z,43.73
2019-04-05T18:33:13.839Z,40.63
2019-04-05T18:35:42.825Z,41.97
2019-04-05T18:38:11.928Z,40.37
2019-04-05T18:40:40.735Z,41.73
2019-04-05T18:43:09.456Z,40.13
2019-04-05T18:45:38.548Z,37.80
2019-04-05T18:48:07.645Z,39.43
2019-04-05T18:50:36.522Z,39.50
2019-04-05T18:53:05.646Z,40.13
2019-04-05T18:55:34.626Z,40.13
2019-04-05T18:58:03.417Z,39.73
2019-04-05T19:00:32.517Z,40.63
2019-04-05T19:03:01.412Z,39.37
2019-04-05T19:05:30.363Z,41.70
2019-04-05T19:07:59.339Z,39.43
2019-04-05T19:10:36.875Z,40.10
2019-04-05T19:12:59.482Z,40.80
2019-04-05T19:15:28.771Z,39.37
2019-04-05T19:17:57.823Z,40.10
2019-04-05T19:20:26.685Z,38.83
2019-04-05T19:22:55.679Z,40.70
2019-04-05T19:25:24.711Z,41.10
2019-04-05T19:27:53.677Z,41.07
2019-04-05T19:50:30.691Z,38.23
2019-04-05T19:52:59.470Z,40.10
2019-04-05T19:55:28.438Z,40.20
2019-04-05T19:57:57.561Z,40.43
2019-04-05T20:00:26.618Z,39.03
2019-04-05T20:02:55.580Z,39.60
2019-04-05T20:05:24.278Z,40.53
2019-04-05T20:07:53.299Z,39.03
2019-04-05T20:10:22.588Z,39.23
2019-04-05T20:12:51.525Z,39.90
2019-04-05T20:15:20.492Z,39.03
2019-04-05T20:17:49.682Z,39.80
2019-04-05T20:20:18.658Z,37.50
2019-04-05T20:22:47.628Z,37.93
2019-04-05T20:25:16.742Z,38.13
2019-04-05T20:27:45.676Z,37.57
2019-04-05T20:30:14.801Z,38.83
2019-04-05T20:32:43.766Z,39.00
2019-04-05T20:35:14.080Z,34.27
2019-04-05T20:37:42.795Z,37.47
2019-04-05T20:40:12.207Z,34.27
2019-04-05T20:42:41.152Z,35.73
2019-04-05T20:45:10.381Z,35.43
2019-04-05T20:47:39.216Z,36.30
2019-04-05T20:50:08.486Z,36.20
2019-04-05T20:52:37.460Z,36.20
2019-04-05T20:55:07.440Z,36.00
2019-04-05T20:57:36.525Z,34.80
2019-04-05T21:00:07.841Z,34.03
2019-04-05T21:02:36.751Z,33.20
2019-04-05T21:05:05.803Z,33.60
2019-04-05T21:07:34.776Z,34.87
2019-04-05T21:10:03.900Z,33.57
2019-04-05T21:12:32.612Z,34.37
2019-04-05T21:15:01.649Z,34.43
2019-04-05T21:17:30.610Z,33.90
2019-04-05T21:19:59.382Z,33.77
2019-04-05T21:22:28.336Z,33.20
2019-04-05T21:24:57.047Z,34.37
2019-04-05T21:27:25.987Z,32.33
2019-04-05T21:29:54.947Z,34.27
2019-04-05T21:32:23.920Z,34.17
2019-04-05T21:34:52.870Z,34.10
2019-04-05T21:37:22.831Z,33.80
2019-04-05T21:39:51.850Z,31.47
2019-04-05T21:42:20.789Z,33.17
2019-04-05T21:44:49.734Z,33.67
2019-04-05T21:47:18.796Z,34.70
2019-04-05T21:49:48.013Z,33.40
2019-04-05T21:52:17.180Z,33.03
2019-04-05T21:54:47.781Z,31.80
2019-04-05T21:57:18.036Z,33.37
2019-04-05T21:59:48.619Z,34.63
2019-04-05T22:02:18.033Z,34.33
2019-04-05T22:04:46.964Z,32.73
2019-04-05T22:07:16.026Z,33.57
2019-04-05T22:09:45.633Z,34.20
2019-04-05T22:12:14.767Z,32.93
2019-04-05T22:14:43.924Z,34.03
2019-04-05T22:17:13.205Z,34.73
2019-04-05T22:19:42.414Z,35.13
2019-04-05T22:22:11.680Z,35.97
2019-04-05T22:24:40.877Z,38.27
2019-04-05T22:27:10.162Z,37.17
2019-04-05T22:29:39.246Z,37.07
2019-04-05T22:32:08.369Z,38.03
2019-04-05T22:34:37.507Z,37.10
2019-04-05T22:37:06.431Z,37.50
2019-04-05T22:39:35.487Z,35.97
2019-04-05T22:42:04.333Z,35.43
2019-04-05T22:44:39.874Z,37.43
2019-04-05T22:47:04.534Z,36.73
2019-04-05T22:49:34.512Z,35.60
2019-04-05T22:52:03.632Z,36.70
2019-04-05T22:54:33.250Z,38.60
2019-04-05T22:57:02.307Z,38.60
2019-04-05T22:59:31.572Z,39.90
2019-04-05T23:02:00.785Z,40.27
2019-04-05T23:04:30.391Z,38.93
2019-04-05T23:06:59.714Z,39.47
2019-04-05T23:09:29.137Z,39.17
2019-04-05T23:11:58.296Z,38.77
2019-04-05T23:14:27.428Z,37.77
2019-04-05T23:16:56.562Z,37.70
2019-04-05T23:19:25.495Z,39.37
2019-04-05T23:21:54.569Z,37.33
2019-04-05T23:24:23.391Z,37.97
2019-04-05T23:26:52.644Z,37.27
2019-04-05T23:29:22.083Z,37.17
2019-04-05T23:31:51.121Z,35.17
2019-04-05T23:34:20.632Z,35.27
2019-04-05T23:36:50.133Z,36.63
2019-04-05T23:39:18.946Z,36.20
2019-04-05T23:41:48.098Z,36.33
2019-04-05T23:44:17.029Z,35.30
2019-04-05T23:46:46.064Z,35.43
2019-04-05T23:49:15.447Z,36.27
2019-04-05T23:51:44.538Z,38.40
2019-04-05T23:54:13.628Z,36.77
2019-04-05T23:56:42.784Z,35.70
2019-04-05T23:59:12.317Z,36.77
